createdAt,value
2019-05-16T00:02:18.634Z,9.50
2019-05-16T00:04:48.295Z,9.50
2019-05-16T00:07:19.217Z,9.40
2019-05-16T00:09:48.575Z,9.40
2019-05-16T00:12:18.391Z,9.50
2019-05-16T00:14:48.948Z,9.50
2019-05-16T00:17:19.511Z,9.50
2019-05-16T00:19:48.672Z,9.50
2019-05-16T00:22:18.351Z,9.60
2019-05-16T00:24:48.733Z,9.70
2019-05-16T00:27:18.611Z,9.70
2019-05-16T00:29:48.801Z,9.80
2019-05-16T00:32:19.102Z,9.70
2019-05-16T00:34:48.296Z,9.60
2019-05-16T00:37:18.170Z,9.60
2019-05-16T00:39:48.208Z,9.70
2019-05-16T00:42:18.039Z,9.80
2019-05-16T00:44:47.882Z,9.90
2019-05-16T00:47:17.819Z,9.90
2019-05-16T00:49:47.991Z,9.80
2019-05-16T00:52:22.188Z,9.70
2019-05-16T00:54:51.364Z,9.60
2019-05-16T00:57:22.572Z,9.50
2019-05-16T00:59:51.961Z,9.40
2019-05-16T01:02:21.875Z,9.50
2019-05-16T01:04:51.983Z,9.70
2019-05-16T01:07:21.461Z,9.60
2019-05-16T01:09:51.633Z,9.70
2019-05-16T01:12:20.709Z,9.70
2019-05-16T01:14:49.819Z,9.80
2019-05-16T01:17:18.947Z,9.80
2019-05-16T01:19:48.440Z,9.80
2019-05-16T01:22:18.676Z,9.80
2019-05-16T01:24:49.249Z,9.80
2019-05-16T01:27:18.841Z,9.70
2019-05-16T01:29:47.935Z,9.70
2019-05-16T01:32:19.017Z,9.70
2019-05-16T01:34:48.385Z,9.70
2019-05-16T01:37:18.615Z,9.60
2019-05-16T01:39:48.483Z,9.50
2019-05-16T01:42:18.428Z,9.50
2019-05-16T01:44:48.698Z,9.30
2019-05-16T01:47:18.355Z,9.50
2019-05-16T01:49:48.807Z,9.60
2019-05-16T01:52:18.076Z,9.60
2019-05-16T01:54:48.129Z,9.60
2019-05-16T01:57:18.086Z,9.70
2019-05-16T01:59:48.551Z,9.80
2019-05-16T02:02:18.458Z,9.70
2019-05-16T02:04:48.531Z,9.70
2019-05-16T02:07:18.793Z,9.80
2019-05-16T02:09:48.188Z,9.70
2019-05-16T02:12:18.457Z,9.80
2019-05-16T02:14:48.145Z,9.80
2019-05-16T02:17:18.371Z,9.90
2019-05-16T02:19:48.518Z,9.90
2019-05-16T02:22:21.492Z,9.90
2019-05-16T02:24:50.683Z,9.90
2019-05-16T02:27:20.028Z,9.90
2019-05-16T02:29:50.675Z,9.90
2019-05-16T02:32:22.300Z,9.90
2019-05-16T02:34:51.413Z,9.90
2019-05-16T02:37:29.061Z,9.90
2019-05-16T02:39:54.505Z,9.90
2019-05-16T02:42:22.917Z,9.90
2019-05-16T02:44:52.061Z,9.90
2019-05-16T02:47:21.444Z,9.90
2019-05-16T02:49:50.882Z,9.90
2019-05-16T02:52:21.795Z,10.00
2019-05-16T02:54:51.758Z,10.00
2019-05-16T02:57:21.646Z,10.00
2019-05-16T02:59:51.241Z,10.00
2019-05-16T03:02:20.773Z,9.90
2019-05-16T03:04:54.841Z,9.90
2019-05-16T03:07:37.867Z,9.90
2019-05-16T03:09:57.003Z,9.90
2019-05-16T03:12:26.793Z,10.00
2019-05-16T03:15:01.867Z,10.00
2019-05-16T03:17:31.790Z,10.00
2019-05-16T03:20:04.079Z,9.90
2019-05-16T03:22:33.457Z,9.90
2019-05-16T03:25:02.590Z,9.90
2019-05-16T03:27:31.989Z,9.90
2019-05-16T03:30:01.948Z,9.90
2019-05-16T03:32:33.952Z,9.90
2019-05-16T03:35:05.208Z,9.90
2019-05-16T03:37:50.294Z,9.90
2019-05-16T03:40:05.977Z,9.90
2019-05-16T03:42:35.617Z,9.90
2019-05-16T03:45:04.933Z,9.90
2019-05-16T03:47:34.337Z,9.90
2019-05-16T03:50:03.832Z,10.00
2019-05-16T03:52:33.699Z,10.00
2019-05-16T03:55:02.842Z,9.90
2019-05-16T03:57:32.278Z,9.90
2019-05-16T04:00:01.449Z,9.80
2019-05-16T04:02:31.096Z,9.80
2019-05-16T04:05:01.820Z,9.80
2019-05-16T04:07:31.997Z,9.80
2019-05-16T04:10:02.170Z,9.80
2019-05-16T04:12:31.725Z,9.70
2019-05-16T04:15:01.904Z,9.70
2019-05-16T04:17:32.349Z,9.70
2019-05-16T04:20:02.303Z,9.70
2019-05-16T04:22:32.030Z,9.70
2019-05-16T04:25:02.132Z,9.80
2019-05-16T04:27:32.429Z,9.80
2019-05-16T04:30:02.306Z,9.90
2019-05-16T04:32:31.773Z,9.90
2019-05-16T04:35:02.670Z,9.90
2019-05-16T04:37:32.288Z,9.90
2019-05-16T04:40:05.380Z,10.00
2019-05-16T04:42:34.590Z,10.00
2019-05-16T04:45:05.054Z,10.00
2019-05-16T04:47:34.175Z,10.10
2019-05-16T04:50:03.396Z,10.20
2019-05-16T04:52:46.620Z,10.20
2019-05-16T04:55:16.957Z,10.30
2019-05-16T04:57:46.582Z,10.40
2019-05-16T05:00:20.871Z,10.40
2019-05-16T05:02:51.600Z,10.40
2019-05-16T05:05:21.469Z,10.40
2019-05-16T05:07:51.243Z,10.40
2019-05-16T05:10:20.830Z,10.50
2019-05-16T05:12:51.618Z,10.50
2019-05-16T05:15:21.400Z,10.60
2019-05-16T05:17:51.023Z,10.60
2019-05-16T05:20:21.020Z,10.70
2019-05-16T05:22:50.313Z,10.60
2019-05-16T05:25:20.420Z,10.60
2019-05-16T05:27:50.115Z,10.60
2019-05-16T05:30:19.907Z,10.60
2019-05-16T05:32:50.262Z,10.60
2019-05-16T05:35:20.542Z,10.80
2019-05-16T05:37:51.007Z,10.90
2019-05-16T05:40:21.872Z,10.90
2019-05-16T05:42:50.970Z,11.00
2019-05-16T05:45:20.281Z,11.00
2019-05-16T05:47:50.494Z,11.10
2019-05-16T05:50:20.285Z,11.10
2019-05-16T05:52:53.036Z,11.00
2019-05-16T05:55:22.526Z,11.10
2019-05-16T05:57:51.900Z,11.10
2019-05-16T06:00:21.341Z,11.00
2019-05-16T06:02:50.950Z,11.00
2019-05-16T06:05:20.363Z,11.00
2019-05-16T06:07:51.008Z,11.00
2019-05-16T06:10:20.280Z,11.00
2019-05-16T06:12:50.125Z,11.00
2019-05-16T06:15:20.359Z,11.00
2019-05-16T06:17:50.835Z,11.00
2019-05-16T06:20:21.476Z,11.00
2019-05-16T06:22:51.124Z,11.10
2019-05-16T06:25:22.962Z,11.10
2019-05-16T06:27:51.668Z,11.00
2019-05-16T06:30:21.576Z,11.20
2019-05-16T06:32:52.124Z,11.30
2019-05-16T06:35:23.942Z,11.40
2019-05-16T06:37:53.111Z,11.60
2019-05-16T06:40:23.385Z,11.80
2019-05-16T06:42:52.489Z,12.00
2019-05-16T06:45:21.608Z,12.30
2019-05-16T06:47:51.043Z,12.40
2019-05-16T06:50:20.798Z,12.10
2019-05-16T06:52:50.353Z,12.10
2019-05-16T06:55:20.462Z,12.20
2019-05-16T06:57:50.668Z,12.50
2019-05-16T07:00:21.049Z,12.80
2019-05-16T07:02:50.600Z,12.80
2019-05-16T07:05:20.878Z,12.60
2019-05-16T07:07:50.993Z,12.50
2019-05-16T07:10:20.578Z,12.40
2019-05-16T07:12:50.816Z,12.20
2019-05-16T07:15:20.813Z,12.20
2019-05-16T07:17:50.815Z,12.10
2019-05-16T07:20:20.995Z,12.10
2019-05-16T07:22:50.556Z,12.10
2019-05-16T07:25:20.772Z,12.10
2019-05-16T07:27:51.306Z,12.10
2019-05-16T07:30:22.383Z,12.10
2019-05-16T07:32:52.912Z,12.20
2019-05-16T07:35:22.116Z,12.20
2019-05-16T07:37:51.459Z,12.10
2019-05-16T07:40:26.496Z,12.10
2019-05-16T07:42:51.844Z,12.00
2019-05-16T07:45:21.109Z,12.00
2019-05-16T07:47:50.924Z,12.10
2019-05-16T07:50:20.482Z,12.20
2019-05-16T07:52:51.110Z,12.00
2019-05-16T07:55:21.109Z,12.00
2019-05-16T07:57:50.978Z,12.00
2019-05-16T08:00:21.595Z,12.10
2019-05-16T08:02:51.336Z,12.20
2019-05-16T08:05:21.288Z,12.20
2019-05-16T08:07:51.439Z,12.30
2019-05-16T08:10:36.946Z,12.40
2019-05-16T08:12:51.874Z,12.30
2019-05-16T08:15:21.595Z,12.30
2019-05-16T08:17:51.304Z,12.20
2019-05-16T08:20:21.384Z,12.10
2019-05-16T08:22:52.190Z,12.00
2019-05-16T08:25:21.504Z,12.20
2019-05-16T08:27:51.965Z,12.20
2019-05-16T08:30:21.803Z,12.20
2019-05-16T08:35:22.945Z,12.00
2019-05-16T08:37:52.061Z,12.00
2019-05-16T08:40:21.810Z,11.90
2019-05-16T08:42:52.039Z,12.00
2019-05-16T08:45:21.784Z,11.90
2019-05-16T08:47:52.607Z,11.90
2019-05-16T08:50:22.249Z,11.90
2019-05-16T08:55:23.340Z,11.80
2019-05-16T09:00:24.415Z,11.80
2019-05-16T09:02:54.287Z,11.80
2019-05-16T09:05:23.749Z,11.70
2019-05-16T09:08:00.412Z,11.70
2019-05-16T09:10:25.130Z,11.70
2019-05-16T09:10:40.735Z,12.10
2019-05-16T09:12:57.254Z,11.70
2019-05-16T09:15:27.396Z,11.70
2019-05-16T09:17:58.102Z,11.80
2019-05-16T09:18:38.511Z,11.80
2019-05-16T09:20:28.159Z,11.90
2019-05-16T09:22:58.034Z,12.10
2019-05-16T09:25:27.568Z,12.50
2019-05-16T09:27:57.070Z,12.60
2019-05-16T09:30:27.528Z,12.70
2019-05-16T09:32:58.748Z,12.90
2019-05-16T09:35:28.518Z,13.20
2019-05-16T09:37:57.659Z,13.30
2019-05-16T09:40:28.068Z,13.30
2019-05-16T09:42:57.416Z,13.10
2019-05-16T09:45:28.316Z,13.10
2019-05-16T09:47:57.578Z,13.10
2019-05-16T09:50:26.958Z,13.00
2019-05-16T09:52:56.551Z,13.00
2019-05-16T09:55:26.901Z,13.10
2019-05-16T09:57:58.258Z,13.10
2019-05-16T10:00:31.309Z,13.20
2019-05-16T10:03:00.412Z,13.30
2019-05-16T10:05:29.846Z,13.40
2019-05-16T10:07:58.957Z,13.50
2019-05-16T10:10:28.099Z,13.40
2019-05-16T10:12:58.604Z,13.50
2019-05-16T10:15:27.841Z,13.90
2019-05-16T10:17:57.596Z,14.00
2019-05-16T10:20:27.484Z,14.20
2019-05-16T10:22:57.949Z,14.40
2019-05-16T10:25:27.916Z,14.70
2019-05-16T10:27:57.200Z,14.70
2019-05-16T10:30:26.997Z,14.70
2019-05-16T10:32:57.560Z,14.50
2019-05-16T10:35:30.121Z,14.50
2019-05-16T10:37:58.576Z,14.80
2019-05-16T10:40:30.827Z,15.00
2019-05-16T10:42:59.947Z,14.90
2019-05-16T10:45:29.108Z,14.80
2019-05-16T10:47:58.189Z,14.80
2019-05-16T10:50:27.718Z,14.90
2019-05-16T10:53:22.666Z,14.80
2019-05-16T10:55:32.314Z,15.20
2019-05-16T10:58:01.494Z,15.10
2019-05-16T11:01:04.665Z,15.20
2019-05-16T11:03:06.464Z,15.50
2019-05-16T11:05:38.919Z,15.60
2019-05-16T11:08:08.271Z,15.40
2019-05-16T11:10:37.928Z,15.30
2019-05-16T11:13:08.051Z,15.50
2019-05-16T11:15:38.074Z,15.60
2019-05-16T11:18:07.611Z,15.60
2019-05-16T11:20:44.333Z,15.90
2019-05-16T11:25:47.074Z,16.00
2019-05-16T11:28:17.701Z,16.20
2019-05-16T11:30:49.748Z,16.40
2019-05-16T11:33:18.745Z,16.50
2019-05-16T11:35:48.076Z,16.80
2019-05-16T11:38:17.928Z,17.10
2019-05-16T11:40:47.691Z,16.80
2019-05-16T11:43:21.398Z,16.50
2019-05-16T11:45:51.074Z,16.40
2019-05-16T11:48:20.162Z,16.60
2019-05-16T11:50:50.479Z,16.80
2019-05-16T11:53:19.801Z,16.70
2019-05-16T11:55:55.406Z,16.60
2019-05-16T11:58:20.245Z,16.40
2019-05-16T12:00:53.332Z,16.50
2019-05-16T12:03:23.268Z,16.40
2019-05-16T12:05:52.612Z,16.30
2019-05-16T12:08:21.972Z,16.30
2019-05-16T12:10:51.329Z,16.40
2019-05-16T12:13:27.743Z,16.50
2019-05-16T12:15:51.380Z,16.70
2019-05-16T12:18:20.559Z,16.90
2019-05-16T12:20:49.679Z,17.00
2019-05-16T12:23:18.820Z,16.70
2019-05-16T12:25:48.149Z,16.80
2019-05-16T12:28:17.349Z,16.80
2019-05-16T12:30:47.164Z,16.60
2019-05-16T12:35:51.061Z,16.30
2019-05-16T12:38:20.169Z,16.30
2019-05-16T12:40:49.276Z,16.50
2019-05-16T12:43:18.392Z,16.70
2019-05-16T12:45:48.285Z,16.70
2019-05-16T12:48:20.485Z,16.60
2019-05-16T12:50:49.085Z,16.70
2019-05-16T12:53:18.219Z,16.70
2019-05-16T12:55:47.928Z,16.70
2019-05-16T12:58:25.065Z,16.50
2019-05-16T13:00:54.055Z,16.70
2019-05-16T13:03:19.064Z,17.10
2019-05-16T13:05:48.458Z,17.30
2019-05-16T13:08:17.823Z,17.10
2019-05-16T13:10:47.248Z,16.70
2019-05-16T13:13:17.654Z,16.70
2019-05-16T13:15:47.769Z,16.70
2019-05-16T13:18:17.151Z,16.60
2019-05-16T13:20:47.432Z,16.50
2019-05-16T13:23:18.353Z,16.90
2019-05-16T13:25:48.299Z,17.00
2019-05-16T13:28:17.516Z,17.00
2019-05-16T13:30:47.197Z,16.90
2019-05-16T13:33:17.759Z,16.90
2019-05-16T13:35:47.359Z,16.90
2019-05-16T13:38:17.281Z,17.10
2019-05-16T13:40:47.622Z,16.80
2019-05-16T13:43:19.816Z,16.70
2019-05-16T13:45:49.187Z,16.40
2019-05-16T13:48:18.295Z,16.20
2019-05-16T13:50:47.618Z,16.10
2019-05-16T13:53:16.853Z,16.10
2019-05-16T13:55:46.023Z,16.00
2019-05-16T13:58:19.009Z,15.80
2019-05-16T14:00:49.706Z,15.70
2019-05-16T14:03:18.860Z,15.40
2019-05-16T14:05:48.021Z,15.30
2019-05-16T14:08:17.402Z,15.40
2019-05-16T14:10:48.759Z,15.40
2019-05-16T14:13:18.253Z,15.50
2019-05-16T14:15:49.351Z,15.50
2019-05-16T14:18:18.679Z,15.60
2019-05-16T14:20:47.784Z,15.70
2019-05-16T14:23:17.803Z,15.80
2019-05-16T14:25:48.081Z,15.60
2019-05-16T14:28:17.857Z,15.60
2019-05-16T14:30:47.278Z,15.70
2019-05-16T14:33:17.396Z,15.50
2019-05-16T14:35:47.380Z,15.40
2019-05-16T14:38:17.603Z,15.40
2019-05-16T14:40:50.528Z,15.30
2019-05-16T14:43:27.020Z,15.20
2019-05-16T14:45:57.158Z,15.20
2019-05-16T14:48:27.783Z,15.10
2019-05-16T14:50:57.429Z,15.20
2019-05-16T14:53:28.446Z,15.20
2019-05-16T14:55:57.884Z,15.20
2019-05-16T14:58:30.804Z,15.10
2019-05-16T15:00:58.813Z,15.00
2019-05-16T15:03:27.948Z,14.90
2019-05-16T15:05:58.881Z,14.70
2019-05-16T15:08:28.523Z,14.60
2019-05-16T15:10:57.860Z,14.70
2019-05-16T15:13:27.968Z,14.70
2019-05-16T15:15:57.543Z,14.70
2019-05-16T15:18:27.839Z,14.60
2019-05-16T15:20:57.572Z,14.30
2019-05-16T15:23:28.480Z,14.40
2019-05-16T15:26:09.369Z,14.30
2019-05-16T15:28:38.965Z,14.30
2019-05-16T15:31:08.435Z,14.40
2019-05-16T15:33:38.144Z,14.40
2019-05-16T15:36:08.566Z,14.40
2019-05-16T15:38:37.967Z,14.30
2019-05-16T15:43:41.292Z,14.20
2019-05-16T15:46:10.458Z,14.10
2019-05-16T15:48:39.480Z,14.10
2019-05-16T15:51:09.215Z,14.10
2019-05-16T15:53:39.107Z,14.20
2019-05-16T15:56:10.519Z,14.20
2019-05-16T15:58:38.995Z,14.20
2019-05-16T16:01:09.214Z,14.30
2019-05-16T16:03:41.841Z,14.40
2019-05-16T16:06:10.942Z,14.50
2019-05-16T16:08:39.959Z,14.70
2019-05-16T16:11:09.346Z,14.70
2019-05-16T16:13:38.642Z,14.80
2019-05-16T16:16:10.358Z,14.80
2019-05-16T16:18:38.596Z,15.00
2019-05-16T16:21:07.795Z,14.90
2019-05-16T16:23:37.457Z,15.00
2019-05-16T16:26:07.442Z,15.00
2019-05-16T16:28:38.175Z,15.00
2019-05-16T16:31:07.869Z,14.90
2019-05-16T16:33:37.664Z,14.80
2019-05-16T16:36:07.789Z,14.60
2019-05-16T16:38:38.217Z,14.60
2019-05-16T16:41:08.021Z,14.70
2019-05-16T16:43:37.548Z,14.80
2019-05-16T16:46:12.585Z,14.70
2019-05-16T16:48:38.048Z,14.80
2019-05-16T16:51:07.108Z,14.70
2019-05-16T16:53:37.794Z,14.70
2019-05-16T16:58:41.518Z,14.70
2019-05-16T17:01:11.761Z,14.60
2019-05-16T17:03:40.888Z,14.70
2019-05-16T17:06:09.947Z,14.60
2019-05-16T17:08:38.916Z,14.50
2019-05-16T17:11:08.008Z,14.50
2019-05-16T17:13:37.313Z,14.40
2019-05-16T17:16:21.605Z,14.20
2019-05-16T17:18:37.800Z,14.10
2019-05-16T17:21:07.940Z,14.10
2019-05-16T17:23:37.745Z,14.20
2019-05-16T17:26:07.401Z,14.10
2019-05-16T17:28:37.284Z,14.10
2019-05-16T17:31:07.205Z,13.90
2019-05-16T17:33:38.086Z,14.00
2019-05-16T17:36:09.054Z,13.90
2019-05-16T17:38:38.407Z,13.90
2019-05-16T17:41:07.804Z,13.80
2019-05-16T17:43:36.984Z,13.80
2019-05-16T17:46:07.080Z,13.70
2019-05-16T17:48:38.081Z,13.70
2019-05-16T17:51:07.321Z,13.60
2019-05-16T17:53:37.431Z,13.60
2019-05-16T17:56:06.989Z,13.60
2019-05-16T17:58:36.300Z,13.50
2019-05-16T18:01:07.036Z,13.50
2019-05-16T18:03:37.313Z,13.30
2019-05-16T18:06:06.658Z,13.20
2019-05-16T18:08:37.560Z,13.20
2019-05-16T18:11:07.282Z,13.30
2019-05-16T18:13:37.090Z,13.30
2019-05-16T18:16:10.228Z,13.30
2019-05-16T18:18:39.308Z,13.30
2019-05-16T18:21:08.428Z,13.40
2019-05-16T18:23:37.509Z,13.30
2019-05-16T18:26:07.734Z,13.20
2019-05-16T18:28:37.075Z,13.20
2019-05-16T18:31:06.152Z,13.20
2019-05-16T18:33:37.100Z,13.30
2019-05-16T18:36:07.663Z,13.30
2019-05-16T18:38:37.429Z,13.30
2019-05-16T18:41:07.846Z,13.20
2019-05-16T18:43:37.171Z,13.20
2019-05-16T18:46:07.508Z,13.10
2019-05-16T18:48:36.909Z,13.10
2019-05-16T18:51:06.822Z,13.10
2019-05-16T18:53:37.391Z,13.10
2019-05-16T18:56:07.729Z,13.00
2019-05-16T18:58:37.714Z,12.90
2019-05-16T19:01:06.918Z,12.80
2019-05-16T19:03:35.984Z,12.70
2019-05-16T19:06:07.576Z,12.80
2019-05-16T19:08:36.558Z,12.80
2019-05-16T19:11:07.488Z,12.70
2019-05-16T19:13:37.126Z,12.70
2019-05-16T19:16:06.517Z,12.70
2019-05-16T19:18:36.918Z,12.70
2019-05-16T19:21:07.542Z,12.70
2019-05-16T19:23:37.555Z,12.60
2019-05-16T19:26:07.457Z,12.60
2019-05-16T19:28:37.320Z,12.50
2019-05-16T19:31:06.689Z,12.40
2019-05-16T19:33:35.978Z,12.30
2019-05-16T19:36:07.318Z,12.30
2019-05-16T19:38:37.422Z,12.30
2019-05-16T19:41:07.987Z,12.30
2019-05-16T19:43:37.784Z,12.20
2019-05-16T19:46:06.828Z,12.30
2019-05-16T19:48:37.052Z,12.30
2019-05-16T19:51:07.403Z,12.20
2019-05-16T19:53:37.080Z,12.20
2019-05-16T19:56:07.227Z,12.00
2019-05-16T19:58:37.274Z,12.00
2019-05-16T20:01:06.776Z,12.00
2019-05-16T20:03:36.483Z,12.00
2019-05-16T20:06:07.522Z,12.00
2019-05-16T20:08:37.372Z,12.00
2019-05-16T20:11:06.873Z,11.90
2019-05-16T20:13:36.727Z,11.80
2019-05-16T20:16:06.225Z,11.80
2019-05-16T20:18:37.216Z,11.70
2019-05-16T20:21:06.187Z,11.70
2019-05-16T20:23:37.019Z,11.70
2019-05-16T20:26:07.851Z,11.70
2019-05-16T20:28:37.153Z,11.70
2019-05-16T20:31:07.944Z,11.70
2019-05-16T20:33:37.879Z,11.80
2019-05-16T20:36:09.488Z,11.70
2019-05-16T20:38:38.079Z,11.60
2019-05-16T20:41:07.968Z,11.60
2019-05-16T20:43:38.652Z,11.60
2019-05-16T20:46:07.706Z,11.60
2019-05-16T20:48:36.939Z,11.60
2019-05-16T20:51:07.286Z,11.50
2019-05-16T20:53:37.569Z,11.40
2019-05-16T20:56:06.735Z,11.40
2019-05-16T21:01:10.983Z,11.30
2019-05-16T21:03:40.015Z,11.20
2019-05-16T21:06:09.513Z,11.20
2019-05-16T21:08:38.833Z,11.20
2019-05-16T21:11:08.071Z,11.20
2019-05-16T21:13:37.185Z,11.10
2019-05-16T21:16:07.170Z,11.10
2019-05-16T21:18:37.661Z,11.10
2019-05-16T21:21:07.607Z,11.10
2019-05-16T21:23:37.330Z,11.20
2019-05-16T21:26:10.169Z,11.20
2019-05-16T21:28:40.264Z,11.20
2019-05-16T21:31:09.342Z,11.10
2019-05-16T21:33:38.683Z,11.10
2019-05-16T21:36:07.992Z,11.10
2019-05-16T21:38:37.093Z,11.10
2019-05-16T21:41:07.238Z,11.10
2019-05-16T21:43:37.631Z,11.10
2019-05-16T21:46:07.340Z,11.10
2019-05-16T21:48:37.129Z,11.10
2019-05-16T21:51:07.914Z,11.10
2019-05-16T21:53:37.663Z,11.10
2019-05-16T21:56:07.130Z,11.10
2019-05-16T21:58:37.163Z,11.00
2019-05-16T22:01:08.459Z,10.90
2019-05-16T22:03:37.667Z,10.90
2019-05-16T22:06:07.985Z,10.90
2019-05-16T22:08:37.315Z,10.90
2019-05-16T22:11:06.797Z,11.00
2019-05-16T22:13:57.051Z,11.00
2019-05-16T22:16:27.859Z,10.90
2019-05-16T22:18:57.073Z,10.90
2019-05-16T22:21:27.085Z,10.90
2019-05-16T22:23:57.999Z,10.90
2019-05-16T22:26:27.323Z,10.90
2019-05-16T22:29:00.123Z,10.90
2019-05-16T22:31:29.204Z,10.80
2019-05-16T22:33:58.793Z,10.80
2019-05-16T22:36:27.999Z,10.80
2019-05-16T22:38:59.568Z,10.90
2019-05-16T22:41:28.093Z,10.90
2019-05-16T22:43:57.443Z,10.90
2019-05-16T22:46:26.935Z,10.90
2019-05-16T22:48:56.153Z,10.80
2019-05-16T22:51:27.167Z,10.80
2019-05-16T22:53:58.685Z,10.80
2019-05-16T22:56:27.335Z,10.80
2019-05-16T22:58:56.490Z,10.80
2019-05-16T23:01:27.171Z,10.80
2019-05-16T23:03:58.325Z,10.80
2019-05-16T23:06:29.592Z,10.80
2019-05-16T23:08:58.931Z,10.70
2019-05-16T23:11:30.943Z,10.80
2019-05-16T23:14:00.171Z,10.80
2019-05-16T23:16:29.422Z,10.80
2019-05-16T23:18:58.451Z,10.80
2019-05-16T23:21:27.782Z,10.80
2019-05-16T23:23:57.197Z,10.80
2019-05-16T23:26:26.941Z,10.80
2019-05-16T23:28:56.605Z,10.80
2019-05-16T23:31:27.172Z,10.80
2019-05-16T23:33:56.586Z,10.80
2019-05-16T23:36:26.473Z,10.90
2019-05-16T23:38:56.807Z,10.80
2019-05-16T23:41:29.464Z,10.90
2019-05-16T23:43:59.063Z,10.90
2019-05-16T23:46:28.388Z,10.80
2019-05-16T23:48:57.551Z,10.90
2019-05-16T23:51:27.594Z,10.90
2019-05-16T23:53:57.133Z,10.90
2019-05-16T23:56:27.304Z,10.80
2019-05-16T23:58:56.968Z,10.80
